Time;durP1;ratioP1;P1;durP2;ratioP2;P2;SDS_P1;SDS_P2;PMS_P1;PMS_P2;Temp;Humidity;BMP_temperature;BMP_pressure;BME280_temperature;BME280_humidity;BME280_pressure;Samples;Min_cycle;Max_cycle;Signal;HPM_P1;HPM_P2
2022/09/24 00:05:38;;;;;;;6.22;4.03;;;16.80;70.30;;;;;;10870959;32;20069;-77
2022/09/24 00:11:42;;;;;;;5.70;3.80;;;16.90;70.40;;;;;;10870592;32;20061;-76
2022/09/24 00:17:46;;;;;;;6.07;3.85;;;16.90;70.20;;;;;;10870319;32;20066;-77
2022/09/24 00:23:50;;;;;;;6.40;4.68;;;16.90;70.20;;;;;;10870205;32;20332;-77
2022/09/24 00:29:52;;;;;;;5.55;3.45;;;17.00;70.40;;;;;;10870256;32;20411;-76
2022/09/24 00:36:04;;;;;;;5.20;3.85;;;16.90;70.10;;;;;;10869800;32;20055;-77
2022/09/24 00:42:08;;;;;;;6.43;3.62;;;16.90;70.20;;;;;;10865617;32;20047;-77
2022/09/24 00:48:10;;;;;;;7.10;4.57;;;17.00;70.70;;;;;;10869178;32;20065;-76
2022/09/24 00:54:21;;;;;;;6.60;4.07;;;16.90;70.60;;;;;;10868713;32;20302;-77
2022/09/24 01:00:23;;;;;;;5.65;4.32;;;16.90;71.00;;;;;;10868736;32;20027;-76
2022/09/24 01:06:25;;;;;;;6.07;4.40;;;16.90;70.80;;;;;;10868734;32;20050;-77
2022/09/24 01:12:36;;;;;;;5.87;4.35;;;16.90;70.90;;;;;;10868380;32;20020;-77
2022/09/24 01:18:45;;;;;;;5.65;4.00;;;16.90;71.20;;;;;;10868376;32;20035;-77
2022/09/24 01:25:31;;;;;;;6.50;4.43;;;16.90;71.10;;;;;;10864376;32;20024;-77
2022/09/24 01:31:45;;;;;;;8.48;4.47;;;16.90;71.30;;;;;;10839778;32;20364;-77
2022/09/24 01:37:57;;;;;;;5.45;4.22;;;16.90;71.40;;;;;;10867532;32;20332;-77
2022/09/24 01:44:00;;;;;;;5.62;3.50;;;16.80;71.30;;;;;;10867605;32;20027;-77
2022/09/24 01:50:03;;;;;;;6.53;5.07;;;16.80;71.40;;;;;;10867045;32;20328;-77
2022/09/24 01:56:09;;;;;;;8.05;4.05;;;16.90;71.40;;;;;;10867237;32;20301;-77
2022/09/24 02:02:27;;;;;;;5.82;3.92;;;16.80;71.40;;;;;;10866933;32;20020;-77
2022/09/24 02:08:44;;;;;;;4.78;3.50;;;16.80;71.40;;;;;;10866856;32;20427;-77
2022/09/24 02:14:56;;;;;;;6.10;4.40;;;16.80;71.50;;;;;;10866682;32;20019;-77
2022/09/24 02:21:01;;;;;;;5.68;4.05;;;16.80;71.80;;;;;;10866765;32;20031;-77
2022/09/24 02:27:04;;;;;;;8.05;4.72;;;16.90;71.70;;;;;;10866622;32;20449;-77
2022/09/24 02:34:19;;;;;;;6.90;4.90;;;16.80;71.70;;;;;;10866636;32;20042;-77
2022/09/24 02:39:59;;;;;;;6.05;4.62;;;16.80;71.90;;;;;;10867486;32;20335;-77
2022/09/24 02:46:02;;;;;;;6.37;4.50;;;16.80;71.90;;;;;;10866159;32;20016;-77
2022/09/24 02:52:04;;;;;;;10.82;4.60;;;16.80;71.80;;;;;;10866117;32;20077;-77
2022/09/24 02:58:06;;;;;;;7.03;4.85;;;16.70;71.90;;;;;;10866116;32;20038;-77
2022/09/24 03:04:12;;;;;;;7.40;4.93;;;16.60;72.00;;;;;;10866026;32;20016;-77
2022/09/24 03:10:15;;;;;;;7.62;4.95;;;16.70;72.40;;;;;;10865978;32;20024;-77
2022/09/24 03:16:20;;;;;;;10.25;5.45;;;16.70;72.60;;;;;;10868815;32;20019;-77
2022/09/24 03:22:22;;;;;;;8.07;5.32;;;16.70;72.40;;;;;;10872242;32;20024;-76
2022/09/24 03:28:24;;;;;;;5.68;4.80;;;16.70;72.30;;;;;;10859054;32;20382;-77
2022/09/24 03:34:26;;;;;;;5.82;4.07;;;16.60;72.40;;;;;;10871991;32;20046;-77
2022/09/24 03:40:28;;;;;;;5.32;4.15;;;16.60;72.50;;;;;;10871785;32;20384;-77
2022/09/24 03:46:30;;;;;;;5.10;3.90;;;16.60;72.80;;;;;;10867927;32;20050;-77
2022/09/24 03:52:31;;;;;;;6.75;4.53;;;16.60;72.90;;;;;;10871404;32;20432;-77
2022/09/24 03:58:36;;;;;;;9.23;4.12;;;16.60;72.70;;;;;;10857857;32;20020;-77
2022/09/24 04:04:39;;;;;;;5.37;4.10;;;16.60;72.80;;;;;;10870893;32;20028;-77
2022/09/24 04:10:43;;;;;;;8.50;5.85;;;16.60;72.90;;;;;;10854477;32;20047;-77
2022/09/24 04:16:45;;;;;;;6.12;4.68;;;16.60;72.70;;;;;;10870401;32;20046;-76
2022/09/24 04:22:51;;;;;;;5.50;4.07;;;16.50;72.80;;;;;;10870469;32;20024;-77
2022/09/24 04:28:53;;;;;;;4.97;3.33;;;16.50;72.90;;;;;;10869148;32;20024;-77
2022/09/24 04:34:56;;;;;;;6.25;4.18;;;16.50;72.90;;;;;;10869915;32;20046;-77
2022/09/24 04:41:08;;;;;;;6.40;4.43;;;16.50;72.80;;;;;;10861918;32;20399;-76
2022/09/24 04:47:10;;;;;;;5.87;3.85;;;16.40;73.00;;;;;;10869329;32;20054;-77
2022/09/24 04:53:13;;;;;;;5.15;3.55;;;16.30;73.10;;;;;;10869101;32;20027;-76
2022/09/24 04:59:15;;;;;;;6.53;4.45;;;16.30;73.20;;;;;;10869039;32;20348;-77
2022/09/24 05:05:17;;;;;;;5.12;3.50;;;16.40;73.50;;;;;;10868610;32;20046;-77
2022/09/24 05:11:19;;;;;;;5.75;4.00;;;16.40;73.70;;;;;;10868653;32;20024;-76
2022/09/24 05:17:23;;;;;;;5.40;4.22;;;16.40;74.10;;;;;;10868327;32;20028;-77
2022/09/24 05:23:26;;;;;;;6.53;4.05;;;16.40;73.90;;;;;;10868262;32;20024;-77
2022/09/24 05:29:28;;;;;;;6.85;4.00;;;16.40;73.80;;;;;;10867777;32;20023;-77
2022/09/24 05:35:30;;;;;;;6.75;4.55;;;16.40;74.00;;;;;;10863535;32;20050;-77
2022/09/24 05:41:47;;;;;;;5.40;3.87;;;16.40;74.30;;;;;;10867200;32;20036;-77
2022/09/24 05:47:49;;;;;;;4.40;3.33;;;16.40;74.20;;;;;;10867407;32;20020;-77
2022/09/24 05:53:51;;;;;;;4.37;3.05;;;16.50;74.20;;;;;;10867178;32;20083;-77
2022/09/24 05:59:53;;;;;;;6.93;4.68;;;16.60;74.40;;;;;;10867023;32;20024;-77
2022/09/24 06:05:55;;;;;;;5.53;3.85;;;16.60;74.40;;;;;;10867057;32;20340;-77
2022/09/24 06:11:57;;;;;;;6.57;3.75;;;16.60;74.20;;;;;;10870463;27;20058;-77
2022/09/24 06:17:59;;;;;;;4.97;2.92;;;16.70;74.20;;;;;;10864855;32;20035;-77
2022/09/24 06:24:02;;;;;;;12.00;3.65;;;16.70;74.40;;;;;;10866698;32;20012;-77
2022/09/24 06:30:04;;;;;;;6.78;3.60;;;16.80;74.50;;;;;;10866150;32;20028;-77
2022/09/24 06:36:07;;;;;;;5.87;3.50;;;16.80;74.50;;;;;;10864433;32;20024;-77
2022/09/24 06:42:10;;;;;;;6.68;3.42;;;16.80;74.40;;;;;;10863755;32;20031;-77
2022/09/24 06:48:13;;;;;;;4.60;3.28;;;16.90;74.40;;;;;;10866184;32;20327;-77
2022/09/24 06:54:15;;;;;;;6.28;4.07;;;16.90;74.40;;;;;;10868778;32;20024;-77
2022/09/24 07:00:18;;;;;;;6.18;3.42;;;17.00;74.20;;;;;;10873266;32;20388;-77
2022/09/24 07:13:19;;;;;;;7.45;4.62;;;17.30;73.80;;;;;;10871986;32;20024;-77
2022/09/24 07:19:21;;;;;;;6.72;3.33;;;17.30;73.60;;;;;;10870176;32;20032;-77
2022/09/24 07:25:23;;;;;;;5.97;4.50;;;17.50;73.70;;;;;;10869964;32;20027;-77
2022/09/24 07:31:25;;;;;;;5.45;3.65;;;17.50;73.60;;;;;;10867679;32;20085;-76
2022/09/24 07:37:29;;;;;;;6.07;4.50;;;17.60;73.40;;;;;;10865508;32;20011;-77
2022/09/24 07:43:32;;;;;;;7.20;4.72;;;17.70;73.00;;;;;;10869529;32;20039;-71
2022/09/24 07:49:37;;;;;;;7.68;5.68;;;17.80;72.90;;;;;;10869171;32;20035;-70
2022/09/24 07:55:40;;;;;;;7.15;5.15;;;17.80;73.00;;;;;;10869359;32;20019;-70
2022/09/24 08:01:43;;;;;;;8.07;5.40;;;17.80;72.80;;;;;;10855580;32;20058;-70
2022/09/24 08:07:54;;;;;;;6.40;4.00;;;17.90;72.30;;;;;;10868965;32;20469;-70
2022/09/24 08:13:56;;;;;;;7.30;4.10;;;18.10;72.20;;;;;;10467811;32;12242437;-70
2022/09/24 08:19:59;;;;;;;4.85;3.50;;;18.20;71.90;;;;;;10830240;32;20019;-71
2022/09/24 08:26:35;;;;;;;3.85;2.87;;;18.30;71.80;;;;;;10817967;32;20081;-71
2022/09/24 08:32:49;;;;;;;7.95;4.95;;;18.50;71.60;;;;;;10757292;33;20055;-72
2022/09/24 08:38:54;;;;;;;7.97;4.57;;;18.50;71.30;;;;;;10765880;33;20033;-71
2022/09/24 08:51:20;;;;;;;4.25;2.83;;;18.80;70.90;;;;;;10808066;32;20416;-71
2022/09/24 08:57:22;;;;;;;4.45;3.17;;;18.90;70.70;;;;;;10828123;32;20024;-71
2022/09/24 09:03:58;;;;;;;4.45;3.15;;;18.90;70.40;;;;;;10807389;33;20040;-71
2022/09/24 09:10:26;;;;;;;4.55;2.92;;;19.20;70.10;;;;;;10811055;32;20368;-71
2022/09/24 09:16:44;;;;;;;5.20;3.00;;;19.30;70.00;;;;;;10824034;32;20036;-71
2022/09/24 09:23:09;;;;;;;3.83;2.90;;;19.30;69.90;;;;;;10790698;33;20047;-71
2022/09/24 09:29:11;;;;;;;8.45;3.20;;;19.40;69.70;;;;;;10789909;33;20020;-71
2022/09/24 09:35:19;;;;;;;3.83;2.45;;;19.40;69.60;;;;;;10819791;32;20024;-71
2022/09/24 09:41:38;;;;;;;4.62;2.70;;;19.50;69.30;;;;;;10830666;32;20042;-71
2022/09/24 09:47:46;;;;;;;3.55;2.30;;;19.60;68.90;;;;;;10830197;32;20035;-70
2022/09/24 09:53:57;;;;;;;7.70;2.63;;;19.70;68.80;;;;;;10830263;32;20020;-72
2022/09/24 10:00:00;;;;;;;3.47;2.15;;;19.70;68.80;;;;;;10829906;32;20054;-71
2022/09/24 10:06:05;;;;;;;3.03;1.80;;;19.50;68.50;;;;;;10829922;32;20028;-71
2022/09/24 10:12:21;;;;;;;5.40;2.28;;;19.40;68.40;;;;;;10829816;32;20408;-70
2022/09/24 10:18:40;;;;;;;2.85;2.03;;;19.50;68.60;;;;;;10827985;32;20451;-70
2022/09/24 10:24:43;;;;;;;7.75;3.55;;;19.80;68.10;;;;;;10832403;32;20212;-70
2022/09/24 10:31:13;;;;;;;3.85;2.28;;;19.90;67.70;;;;;;10837336;32;20025;-70
2022/09/24 10:37:53;;;;;;;4.03;2.55;;;20.00;67.60;;;;;;10838673;32;20028;-71
2022/09/24 10:44:10;;;;;;;5.43;2.40;;;20.10;67.70;;;;;;10823828;32;20385;-71
2022/09/24 10:50:44;;;;;;;7.35;3.20;;;20.00;67.60;;;;;;10820549;33;20031;-71
2022/09/24 10:56:52;;;;;;;2.08;1.55;;;20.00;67.60;;;;;;10836208;32;20040;-71
2022/09/24 11:02:58;;;;;;;3.67;2.58;;;20.00;67.60;;;;;;10832171;33;20051;-71
2022/09/24 11:09:21;;;;;;;3.87;2.35;;;20.00;67.40;;;;;;10835964;32;20027;-71
2022/09/24 11:15:40;;;;;;;2.72;1.90;;;19.80;67.60;;;;;;10809615;32;20027;-71
2022/09/24 11:22:14;;;;;;;2.90;2.58;;;19.80;67.40;;;;;;10831389;32;20055;-71
2022/09/24 11:28:41;;;;;;;10.98;2.70;;;19.90;67.10;;;;;;10829542;32;20071;-71
2022/09/24 11:35:16;;;;;;;3.05;1.80;;;19.90;67.10;;;;;;10830450;32;20059;-71
2022/09/24 11:41:29;;;;;;;4.40;2.55;;;19.80;67.00;;;;;;10814263;33;20027;-71
2022/09/24 11:48:06;;;;;;;3.53;2.20;;;19.70;67.30;;;;;;10830470;32;20074;-70
2022/09/24 11:54:23;;;;;;;3.65;2.20;;;19.60;67.70;;;;;;10871687;32;20035;-71
2022/09/24 12:00:34;;;;;;;4.55;2.40;;;19.60;68.30;;;;;;10871297;32;20054;-71
2022/09/24 12:07:28;;;;;;;4.12;2.55;;;19.60;68.20;;;;;;10872949;32;20410;-71
2022/09/24 12:13:41;;;;;;;7.20;2.90;;;19.70;67.80;;;;;;10857368;32;20042;-71
2022/09/24 12:20:19;;;;;;;4.03;2.60;;;19.80;68.20;;;;;;10870222;32;20024;-71
2022/09/24 12:26:22;;;;;;;3.70;2.60;;;19.80;68.10;;;;;;10870493;32;20129;-71
2022/09/24 12:32:54;;;;;;;3.25;2.50;;;19.90;68.90;;;;;;10870184;32;20031;-71
2022/09/24 12:39:04;;;;;;;4.30;2.67;;;19.80;68.40;;;;;;10869896;32;20407;-71
2022/09/24 12:45:14;;;;;;;3.60;2.20;;;19.80;68.60;;;;;;10866645;32;20061;-71
2022/09/24 12:51:21;;;;;;;3.72;2.70;;;19.80;68.40;;;;;;10868818;32;20077;-71
2022/09/24 12:57:27;;;;;;;3.70;2.85;;;19.70;68.30;;;;;;10856077;32;20028;-71
2022/09/24 13:03:39;;;;;;;2.92;2.28;;;19.70;68.70;;;;;;10869136;32;20046;-71
2022/09/24 13:09:43;;;;;;;2.17;1.67;;;19.70;68.50;;;;;;10868609;32;20015;-71
2022/09/24 13:15:56;;;;;;;3.58;2.45;;;19.70;68.40;;;;;;10868708;32;20031;-70
2022/09/24 13:21:59;;;;;;;4.15;2.45;;;19.80;68.00;;;;;;10867565;32;20031;-71
2022/09/24 13:28:19;;;;;;;3.10;2.35;;;19.80;67.90;;;;;;10867945;32;20035;-72
2022/09/24 13:34:26;;;;;;;3.40;2.12;;;19.90;68.20;;;;;;10868036;32;20046;-71
2022/09/24 13:40:48;;;;;;;2.30;1.92;;;19.90;68.40;;;;;;10867218;32;20051;-71
2022/09/24 13:47:03;;;;;;;2.00;1.52;;;19.90;68.20;;;;;;10867386;32;20347;-71
2022/09/24 13:53:10;;;;;;;6.53;2.17;;;19.90;68.40;;;;;;10867480;32;20407;-72
2022/09/24 13:59:13;;;;;;;3.37;2.42;;;19.90;68.20;;;;;;10866849;32;20020;-71
2022/09/24 14:05:17;;;;;;;3.10;2.03;;;19.80;67.90;;;;;;10867235;32;20024;-71
2022/09/24 14:11:26;;;;;;;2.87;2.08;;;19.80;67.70;;;;;;10870852;27;20426;-71
2022/09/24 14:17:28;;;;;;;3.05;1.98;;;19.70;67.80;;;;;;10853071;32;20042;-71
2022/09/24 14:23:38;;;;;;;4.12;2.90;;;19.70;67.90;;;;;;10862577;32;20023;-71
2022/09/24 14:29:46;;;;;;;2.92;2.08;;;19.70;68.00;;;;;;10842126;32;20043;-71
2022/09/24 14:35:51;;;;;;;3.67;2.58;;;19.50;68.50;;;;;;10829061;33;20044;-71
2022/09/24 14:41:56;;;;;;;4.35;2.78;;;19.40;68.80;;;;;;10829503;33;20320;-70
2022/09/24 14:48:17;;;;;;;5.10;3.83;;;19.30;69.30;;;;;;10829063;33;20329;-70
2022/09/24 14:54:34;;;;;;;3.25;2.60;;;19.30;69.40;;;;;;10825541;33;20051;-70
2022/09/24 15:00:58;;;;;;;5.12;3.15;;;19.20;69.50;;;;;;10844497;32;20089;-70
2022/09/24 15:07:25;;;;;;;5.15;3.22;;;19.20;69.60;;;;;;10864037;32;20384;-71
2022/09/24 15:13:37;;;;;;;2.63;2.30;;;19.10;69.70;;;;;;10870426;32;20035;-71
2022/09/24 15:19:42;;;;;;;4.90;3.17;;;19.00;70.40;;;;;;10872732;32;20019;-71
2022/09/24 15:25:46;;;;;;;4.43;3.00;;;18.90;71.30;;;;;;10871447;32;20070;-71
2022/09/24 15:31:50;;;;;;;4.40;2.60;;;18.80;71.60;;;;;;10850571;32;20032;-70
2022/09/24 15:37:53;;;;;;;4.60;2.80;;;18.80;71.80;;;;;;10834958;32;20024;-71
2022/09/24 15:43:57;;;;;;;5.82;2.90;;;18.80;71.70;;;;;;10834918;32;20027;-71
2022/09/24 15:49:58;;;;;;;4.37;2.85;;;18.80;71.80;;;;;;10860059;32;20062;-70
2022/09/24 15:56:02;;;;;;;4.78;2.37;;;18.70;72.30;;;;;;10871159;32;20019;-71
2022/09/24 16:02:35;;;;;;;3.60;2.40;;;18.70;72.70;;;;;;10870996;32;20035;-69
2022/09/24 16:08:38;;;;;;;4.78;2.05;;;18.60;73.00;;;;;;10866845;32;20395;-70
2022/09/24 16:15:11;;;;;;;7.40;2.97;;;18.60;73.40;;;;;;10868823;32;20062;-70
2022/09/24 16:21:14;;;;;;;4.78;2.40;;;18.60;73.30;;;;;;10870371;32;20028;-69
2022/09/24 16:27:22;;;;;;;4.15;3.00;;;18.60;73.60;;;;;;10866303;32;20055;-70
2022/09/24 16:33:24;;;;;;;3.47;2.33;;;18.50;73.60;;;;;;10870050;32;20351;-69
2022/09/24 16:39:26;;;;;;;5.10;3.37;;;18.60;73.40;;;;;;10862433;32;20090;-70
2022/09/24 16:45:30;;;;;;;4.20;2.42;;;18.50;73.50;;;;;;10864684;32;20027;-69
2022/09/24 16:51:33;;;;;;;3.33;2.28;;;18.50;73.30;;;;;;10842280;32;20047;-69
2022/09/24 16:57:37;;;;;;;4.87;3.05;;;18.50;73.20;;;;;;10857258;32;20070;-70
2022/09/24 17:03:39;;;;;;;4.72;2.55;;;18.50;73.20;;;;;;10868491;32;20031;-69
2022/09/24 17:16:06;;;;;;;4.60;2.87;;;18.50;73.40;;;;;;10861414;32;20054;-69
2022/09/24 17:22:08;;;;;;;5.95;3.00;;;18.50;73.60;;;;;;10828687;32;20028;-69
2022/09/24 17:28:10;;;;;;;3.95;2.83;;;18.40;73.90;;;;;;10820786;32;20058;-70
2022/09/24 17:34:14;;;;;;;3.42;2.37;;;18.30;73.90;;;;;;10863421;32;20054;-70
2022/09/24 17:40:21;;;;;;;4.90;3.33;;;18.40;73.70;;;;;;10867905;32;20020;-70
2022/09/24 17:46:29;;;;;;;3.72;2.65;;;18.40;73.90;;;;;;10867526;32;20039;-70
2022/09/24 17:52:31;;;;;;;6.05;3.42;;;18.40;73.80;;;;;;10867521;32;20024;-69
2022/09/24 17:58:40;;;;;;;4.90;3.47;;;18.40;73.80;;;;;;10861260;32;20027;-70
2022/09/24 18:04:59;;;;;;;5.15;3.62;;;18.40;73.80;;;;;;10867232;32;20027;-70
2022/09/24 18:11:04;;;;;;;4.23;3.13;;;18.40;73.90;;;;;;10867080;32;20031;-70
2022/09/24 18:17:07;;;;;;;3.75;2.53;;;18.30;74.10;;;;;;10866915;32;20410;-69
2022/09/24 18:23:09;;;;;;;4.47;3.15;;;18.30;74.10;;;;;;10866672;32;20038;-69
2022/09/24 18:29:14;;;;;;;4.20;3.03;;;18.30;74.20;;;;;;10866577;32;20028;-69
2022/09/24 18:35:16;;;;;;;3.72;3.00;;;18.30;74.10;;;;;;10865383;32;20020;-69
2022/09/24 18:41:22;;;;;;;5.25;3.65;;;18.30;74.30;;;;;;10862957;32;20019;-69
2022/09/24 18:47:24;;;;;;;5.37;4.05;;;18.30;74.50;;;;;;10870171;32;20020;-70
2022/09/24 18:53:30;;;;;;;6.40;3.75;;;18.20;74.40;;;;;;10860365;32;20431;-70
2022/09/24 18:59:45;;;;;;;3.72;2.33;;;18.30;74.30;;;;;;10873140;32;20044;-69
2022/09/24 19:05:50;;;;;;;5.22;2.87;;;18.20;74.40;;;;;;10873243;32;20461;-69
2022/09/24 19:11:52;;;;;;;3.37;2.60;;;18.20;74.60;;;;;;10859681;32;20032;-69
2022/09/24 19:17:55;;;;;;;5.53;3.10;;;18.20;74.70;;;;;;10872671;32;20032;-69
2022/09/24 19:23:58;;;;;;;3.92;2.40;;;18.20;74.80;;;;;;10872482;32;20047;-70
2022/09/24 19:30:00;;;;;;;2.78;2.30;;;18.10;74.80;;;;;;10872204;32;20027;-69
2022/09/24 19:36:03;;;;;;;4.43;3.03;;;18.10;74.90;;;;;;10870907;32;20015;-69
2022/09/24 19:42:06;;;;;;;4.15;3.28;;;18.10;74.80;;;;;;10872081;32;20019;-69
2022/09/24 19:48:09;;;;;;;5.55;3.53;;;18.00;74.80;;;;;;10871783;32;20046;-69
2022/09/24 19:54:11;;;;;;;3.65;2.45;;;18.00;75.00;;;;;;10867524;32;20050;-69
2022/09/24 20:00:14;;;;;;;4.45;2.75;;;18.00;75.10;;;;;;10871076;32;20019;-69
2022/09/24 20:06:19;;;;;;;5.00;3.30;;;18.00;75.20;;;;;;10867327;32;20040;-69
2022/09/24 20:12:21;;;;;;;4.40;2.55;;;17.90;75.40;;;;;;10870864;32;20042;-70
2022/09/24 20:18:24;;;;;;;3.85;2.72;;;17.90;75.50;;;;;;10869360;32;20050;-69
2022/09/24 20:24:27;;;;;;;5.80;3.55;;;18.00;75.50;;;;;;10870690;32;20384;-70
2022/09/24 20:30:34;;;;;;;5.80;3.22;;;18.00;75.60;;;;;;10870255;32;20036;-70
2022/09/24 20:36:37;;;;;;;4.90;3.15;;;18.00;75.50;;;;;;10865851;32;20028;-70
2022/09/24 20:42:50;;;;;;;;;;;18.00;75.50;;;;;;10870134;32;20016;-70
2022/09/24 20:48:59;;;;;;;6.18;3.90;;;17.80;75.70;;;;;;10869698;32;19935;-70
2022/09/24 20:55:01;;;;;;;4.47;3.47;;;17.80;75.90;;;;;;10869181;32;20422;-70
2022/09/24 21:01:03;;;;;;;5.93;3.87;;;17.70;76.20;;;;;;10869237;32;20024;-70
2022/09/24 21:07:05;;;;;;;4.97;2.85;;;17.70;76.30;;;;;;10868599;32;20069;-70
2022/09/24 21:13:08;;;;;;;4.12;2.95;;;17.70;76.60;;;;;;10864262;32;20054;-69
2022/09/24 21:19:11;;;;;;;7.68;3.22;;;17.70;76.70;;;;;;10865495;32;20028;-69
2022/09/24 21:25:14;;;;;;;7.57;3.72;;;17.70;76.70;;;;;;10868399;32;20016;-70
2022/09/24 21:31:20;;;;;;;6.35;3.50;;;17.70;77.00;;;;;;10854696;32;20028;-70
2022/09/24 21:37:32;;;;;;;8.55;3.10;;;17.70;77.20;;;;;;10867939;32;20058;-70
2022/09/24 21:43:36;;;;;;;5.95;3.83;;;17.70;77.40;;;;;;10866060;32;20050;-70
2022/09/24 21:49:46;;;;;;;5.72;3.50;;;17.60;77.60;;;;;;10904914;32;20031;-70
2022/09/24 21:55:48;;;;;;;4.70;2.85;;;17.50;77.90;;;;;;10904737;32;20422;-69
2022/09/24 22:01:51;;;;;;;4.35;2.95;;;17.50;78.10;;;;;;10904607;32;20027;-69
2022/09/24 22:07:53;;;;;;;5.72;4.43;;;17.40;78.30;;;;;;10904388;32;20071;-71
2022/09/24 22:14:00;;;;;;;6.60;3.33;;;17.40;78.30;;;;;;10869722;27;20054;-70
2022/09/24 22:20:05;;;;;;;5.00;3.58;;;17.50;78.10;;;;;;10853543;32;20046;-70
2022/09/24 22:26:09;;;;;;;6.05;3.45;;;17.40;78.20;;;;;;10866569;32;20430;-70
2022/09/24 22:32:11;;;;;;;4.35;3.10;;;17.40;78.40;;;;;;10866571;32;20055;-69
2022/09/24 22:38:14;;;;;;;4.65;3.60;;;17.40;78.50;;;;;;10864695;32;20024;-71
2022/09/24 22:44:16;;;;;;;6.70;3.83;;;17.40;78.80;;;;;;10862427;32;20290;-70
2022/09/24 22:50:18;;;;;;;5.15;3.53;;;17.30;78.90;;;;;;10866409;32;20057;-70
2022/09/24 22:56:23;;;;;;;6.93;3.80;;;17.40;78.80;;;;;;10866154;32;20027;-69
2022/09/24 23:02:47;;;;;;;7.93;4.50;;;17.40;78.60;;;;;;10866266;32;20028;-70
2022/09/24 23:08:51;;;;;;;9.07;4.55;;;17.50;78.50;;;;;;10866148;32;20058;-70
2022/09/24 23:14:54;;;;;;;11.10;4.85;;;17.40;78.40;;;;;;10850028;32;20042;-70
2022/09/24 23:21:05;;;;;;;5.85;3.55;;;17.40;78.40;;;;;;10865788;32;20051;-70
2022/09/24 23:27:07;;;;;;;5.47;3.70;;;17.40;78.30;;;;;;10865746;32;20039;-70
2022/09/24 23:33:09;;;;;;;6.70;3.87;;;17.40;78.30;;;;;;10868644;32;20043;-69
2022/09/24 23:39:12;;;;;;;7.15;4.68;;;17.40;78.50;;;;;;10872159;32;20019;-69
2022/09/24 23:45:14;;;;;;;7.87;4.35;;;17.40;78.50;;;;;;10872172;32;20020;-69
2022/09/24 23:51:16;;;;;;;5.95;3.92;;;17.40;78.70;;;;;;10871742;32;20388;-69
2022/09/24 23:57:18;;;;;;;6.53;4.07;;;17.30;78.80;;;;;;10871647;32;20059;-68
